Time;durP1;ratioP1;P1;durP2;ratioP2;P2;SDS_P1;SDS_P2;PMS_P1;PMS_P2;Temp;Humidity;BMP_temperature;BMP_pressure;BME280_temperature;BME280_humidity;BME280_pressure;Samples;Min_cycle;Max_cycle;Signal;HPM_P1;HPM_P2
2023/03/24 00:01:56;;;;;;;14.52;4.93;;;11.30;99.90;;;;;;5032131;28;20044;-72
2023/03/24 00:04:23;;;;;;;13.13;5.07;;;11.30;99.90;;;;;;5032625;28;20049;-74
2023/03/24 00:06:51;;;;;;;15.80;4.75;;;11.40;99.90;;;;;;5033888;28;20053;-72
2023/03/24 00:09:17;;;;;;;16.10;5.10;;;11.40;99.90;;;;;;5015743;28;20119;-73
2023/03/24 00:11:43;;;;;;;12.98;4.72;;;11.40;99.90;;;;;;5015674;28;20041;-72
2023/03/24 00:14:13;;;;;;;14.18;5.22;;;11.40;99.90;;;;;;5033398;28;20037;-72
2023/03/24 00:16:42;;;;;;;14.80;4.63;;;11.40;99.90;;;;;;5015944;28;20685;-72
2023/03/24 00:19:10;;;;;;;14.32;4.88;;;11.40;99.90;;;;;;5032927;28;20049;-72
2023/03/24 00:21:36;;;;;;;13.98;5.28;;;11.30;99.90;;;;;;5032352;28;20472;-71
2023/03/24 00:24:06;;;;;;;12.65;4.88;;;11.40;99.90;;;;;;5027125;28;20087;-72
2023/03/24 00:26:32;;;;;;;13.02;4.53;;;11.40;99.90;;;;;;5026284;28;20044;-73
2023/03/24 00:28:58;;;;;;;15.98;5.30;;;11.40;99.90;;;;;;5027460;28;20044;-72
2023/03/24 00:31:24;;;;;;;15.48;4.68;;;11.40;99.90;;;;;;5027807;28;20518;-71
2023/03/24 00:33:50;;;;;;;12.15;5.10;;;11.40;99.90;;;;;;5025470;28;20724;-72
2023/03/24 00:36:19;;;;;;;13.57;4.45;;;11.40;99.90;;;;;;5018578;28;20049;-72
2023/03/24 00:38:47;;;;;;;11.48;4.57;;;11.40;99.90;;;;;;5028917;28;20060;-73
2023/03/24 00:41:13;;;;;;;12.70;4.68;;;11.30;99.90;;;;;;5024832;28;20040;-72
2023/03/24 00:43:39;;;;;;;13.68;4.53;;;11.40;99.90;;;;;;5048419;28;20082;-72
2023/03/24 00:46:09;;;;;;;11.38;4.47;;;11.30;99.90;;;;;;5036663;28;20530;-72
2023/03/24 00:48:36;;;;;;;10.65;4.22;;;11.40;99.90;;;;;;5018412;28;20052;-72
2023/03/24 00:51:04;;;;;;;13.23;4.78;;;11.40;99.90;;;;;;5047034;28;20051;-72
2023/03/24 00:53:30;;;;;;;15.45;4.85;;;11.30;99.90;;;;;;5014977;28;20157;-72
2023/03/24 00:55:57;;;;;;;13.13;4.30;;;11.30;99.90;;;;;;5049654;28;20531;-71
2023/03/24 00:58:24;;;;;;;11.45;4.55;;;11.30;99.90;;;;;;5017642;28;20045;-72
2023/03/24 01:00:56;;;;;;;13.25;4.15;;;11.30;99.90;;;;;;5047499;28;20044;-72
2023/03/24 01:03:26;;;;;;;13.43;4.53;;;11.30;99.90;;;;;;5051130;28;20144;-72
2023/03/24 01:05:56;;;;;;;12.40;4.38;;;11.30;99.90;;;;;;5047431;28;20070;-73
2023/03/24 01:08:27;;;;;;;10.43;4.22;;;11.30;99.90;;;;;;5047167;28;20171;-73
2023/03/24 01:10:59;;;;;;;10.20;4.22;;;11.60;99.90;;;;;;5033371;28;20056;-72
2023/03/24 01:13:27;;;;;;;9.15;4.05;;;11.30;99.90;;;;;;5018158;28;20131;-73
2023/03/24 01:15:54;;;;;;;9.80;4.32;;;11.30;99.90;;;;;;5018613;28;20044;-71
2023/03/24 01:18:22;;;;;;;10.40;4.25;;;11.30;99.90;;;;;;5044664;28;20109;-72
2023/03/24 01:20:48;;;;;;;12.50;4.20;;;11.30;99.90;;;;;;5030632;28;20048;-72
2023/03/24 01:23:20;;;;;;;10.38;3.72;;;11.30;99.90;;;;;;5046539;28;20052;-71
2023/03/24 01:25:47;;;;;;;13.10;4.43;;;11.30;99.90;;;;;;5036306;28;20409;-71
2023/03/24 01:28:26;;;;;;;11.10;4.18;;;11.30;99.90;;;;;;5046438;28;20049;-72
2023/03/24 01:30:52;;;;;;;10.60;4.13;;;11.30;99.90;;;;;;5015464;28;20050;-72
2023/03/24 01:33:19;;;;;;;11.57;4.85;;;11.30;99.90;;;;;;5047875;28;20451;-71
2023/03/24 01:35:45;;;;;;;11.70;4.20;;;11.30;99.90;;;;;;5031436;28;20052;-71
2023/03/24 01:38:12;;;;;;;11.85;4.80;;;11.30;99.90;;;;;;5023434;28;20052;-71
2023/03/24 01:40:40;;;;;;;14.00;4.50;;;11.40;99.90;;;;;;5023806;28;20126;-70
2023/03/24 01:43:20;;;;;;;9.55;4.10;;;11.30;99.90;;;;;;5013546;28;20106;-72
2023/03/24 01:46:06;;;;;;;10.27;4.43;;;11.30;99.90;;;;;;5031255;28;20060;-72
2023/03/24 01:48:52;;;;;;;9.85;4.30;;;11.30;99.90;;;;;;5032959;28;20068;-73
2023/03/24 01:51:28;;;;;;;10.98;4.10;;;11.30;99.90;;;;;;5031484;28;20106;-72
2023/03/24 01:54:08;;;;;;;10.52;4.43;;;11.30;99.90;;;;;;5026333;28;20211;-72
2023/03/24 01:56:38;;;;;;;8.38;3.55;;;11.30;99.90;;;;;;5025823;28;20071;-72
2023/03/24 01:59:10;;;;;;;9.30;3.95;;;11.30;99.90;;;;;;5005429;28;20037;-72
2023/03/24 02:01:36;;;;;;;10.93;3.92;;;11.30;99.90;;;;;;5014032;28;20059;-73
2023/03/24 02:04:04;;;;;;;11.43;4.10;;;11.40;99.90;;;;;;5029173;28;20033;-72
2023/03/24 02:06:40;;;;;;;9.95;4.47;;;11.40;99.90;;;;;;5028737;28;20076;-72
2023/03/24 02:09:07;;;;;;;8.23;3.83;;;11.40;99.90;;;;;;5033334;28;20555;-73
2023/03/24 02:11:35;;;;;;;7.63;3.85;;;11.40;99.90;;;;;;5034579;28;20053;-73
2023/03/24 02:14:01;;;;;;;10.15;3.72;;;11.40;99.90;;;;;;5017497;28;20045;-72
2023/03/24 02:16:52;;;;;;;7.40;3.80;;;11.40;99.90;;;;;;5036992;28;20056;-73
2023/03/24 02:19:47;;;;;;;9.13;3.70;;;11.40;99.90;;;;;;5035317;28;20051;-73
2023/03/24 02:22:13;;;;;;;7.95;3.58;;;11.40;99.90;;;;;;5033545;28;20698;-73
2023/03/24 02:24:58;;;;;;;10.50;4.00;;;11.40;99.90;;;;;;5034711;28;20048;-71
2023/03/24 02:27:31;;;;;;;13.20;4.53;;;11.40;99.90;;;;;;5033258;28;20049;-73
2023/03/24 02:30:19;;;;;;;9.65;4.63;;;11.40;99.90;;;;;;5018309;28;20075;-72
2023/03/24 02:33:12;;;;;;;10.48;4.18;;;11.40;99.90;;;;;;5018321;28;20041;-72
2023/03/24 02:35:47;;;;;;;9.82;4.05;;;11.40;99.90;;;;;;5032984;28;20041;-74
2023/03/24 02:38:46;;;;;;;7.15;4.00;;;11.40;99.90;;;;;;5034859;28;20041;-74
2023/03/24 02:41:32;;;;;;;9.27;4.35;;;11.40;99.90;;;;;;5034411;28;20055;-72
2023/03/24 02:44:10;;;;;;;8.80;3.88;;;11.50;99.90;;;;;;5016201;28;20053;-74
2023/03/24 02:46:54;;;;;;;7.45;3.97;;;11.50;99.90;;;;;;5029292;28;20048;-72
2023/03/24 02:49:48;;;;;;;11.95;4.38;;;11.50;99.90;;;;;;5028649;28;20580;-73
2023/03/24 02:52:40;;;;;;;12.38;4.50;;;11.50;99.90;;;;;;5028351;28;20067;-72
2023/03/24 02:55:17;;;;;;;9.13;4.15;;;11.50;99.90;;;;;;5020551;28;20053;-74
2023/03/24 02:58:06;;;;;;;8.60;3.88;;;11.50;99.90;;;;;;5029088;28;20037;-73
2023/03/24 03:00:49;;;;;;;10.82;4.20;;;11.50;99.90;;;;;;5014097;28;20045;-73
2023/03/24 03:03:29;;;;;;;9.60;3.78;;;11.50;99.90;;;;;;5031127;28;20552;-73
2023/03/24 03:06:04;;;;;;;8.70;3.95;;;11.50;99.90;;;;;;5027141;28;20045;-73
2023/03/24 03:08:32;;;;;;;9.35;4.25;;;11.50;99.90;;;;;;5026998;28;20072;-73
2023/03/24 03:11:02;;;;;;;8.70;3.80;;;11.60;99.90;;;;;;5012980;28;20041;-73
2023/03/24 03:13:51;;;;;;;7.88;4.32;;;11.50;99.90;;;;;;5029482;28;20055;-74
2023/03/24 03:16:33;;;;;;;10.13;4.53;;;11.50;99.90;;;;;;5020769;28;20091;-74
2023/03/24 03:19:02;;;;;;;9.75;4.30;;;11.50;99.90;;;;;;5028007;28;20045;-74
2023/03/24 03:21:37;;;;;;;7.47;3.50;;;11.60;99.90;;;;;;5028519;28;20088;-74
2023/03/24 03:24:10;;;;;;;9.13;3.85;;;11.50;99.90;;;;;;5012461;28;20881;-74
2023/03/24 03:26:36;;;;;;;7.03;3.28;;;11.60;99.90;;;;;;5012147;28;20056;-73
2023/03/24 03:29:15;;;;;;;7.65;3.40;;;11.50;99.90;;;;;;5030352;28;20219;-72
2023/03/24 03:31:51;;;;;;;8.18;3.40;;;11.50;99.90;;;;;;5034404;28;20074;-72
2023/03/24 03:34:40;;;;;;;5.35;2.80;;;11.50;99.90;;;;;;5032780;28;20187;-73
2023/03/24 03:37:35;;;;;;;7.65;2.90;;;11.40;99.90;;;;;;5023980;28;20081;-72
2023/03/24 03:40:30;;;;;;;7.15;3.03;;;11.30;99.90;;;;;;5032558;28;20052;-73
2023/03/24 03:42:56;;;;;;;8.75;3.15;;;11.20;99.90;;;;;;5012604;28;20056;-72
2023/03/24 03:45:22;;;;;;;11.40;2.95;;;11.20;99.90;;;;;;5024432;28;20041;-74
2023/03/24 03:47:48;;;;;;;13.07;2.97;;;11.10;99.90;;;;;;5023958;28;20060;-74
2023/03/24 03:50:15;;;;;;;8.80;2.50;;;11.10;99.90;;;;;;5034169;28;20509;-74
2023/03/24 03:52:42;;;;;;;6.53;2.40;;;11.00;99.90;;;;;;5034091;28;20044;-72
2023/03/24 03:55:08;;;;;;;8.48;2.05;;;11.00;99.90;;;;;;5029164;28;20068;-73
2023/03/24 03:57:35;;;;;;;9.45;1.90;;;11.00;99.90;;;;;;5027194;28;20056;-73
2023/03/24 04:00:14;;;;;;;8.00;2.10;;;10.90;99.90;;;;;;5025757;28;20037;-72
2023/03/24 04:02:52;;;;;;;11.55;2.05;;;10.90;99.90;;;;;;5026925;28;20045;-72
2023/03/24 04:05:29;;;;;;;9.65;1.52;;;10.80;99.90;;;;;;5033185;28;20072;-72
2023/03/24 04:08:16;;;;;;;6.93;1.80;;;10.70;99.90;;;;;;5009288;28;20063;-72
2023/03/24 04:10:49;;;;;;;8.32;1.67;;;10.70;99.90;;;;;;5014382;28;20076;-73
2023/03/24 04:13:33;;;;;;;11.45;1.88;;;10.70;99.90;;;;;;5031072;28;20099;-72
2023/03/24 04:16:21;;;;;;;11.27;2.53;;;10.60;99.90;;;;;;5032675;28;20512;-73
2023/03/24 04:19:14;;;;;;;7.20;1.52;;;10.60;99.90;;;;;;5028937;28;20041;-72
2023/03/24 04:21:53;;;;;;;9.38;1.38;;;10.50;99.90;;;;;;5015314;28;20551;-72
2023/03/24 04:24:38;;;;;;;11.35;1.80;;;10.40;99.90;;;;;;5034342;28;20757;-73
2023/03/24 04:27:26;;;;;;;11.85;1.73;;;10.40;99.90;;;;;;5015720;28;20128;-72
2023/03/24 04:30:15;;;;;;;11.63;1.55;;;10.40;99.90;;;;;;5041916;28;20052;-72
2023/03/24 04:33:16;;;;;;;10.95;2.08;;;10.30;99.90;;;;;;5039236;28;21803;-73
2023/03/24 04:35:48;;;;;;;;;;;10.20;99.90;;;;;;5040248;28;20044;-73
2023/03/24 04:38:22;;;;;;;9.05;1.48;;;10.20;99.90;;;;;;5028662;28;20582;-73
2023/03/24 04:40:51;;;;;;;11.07;1.73;;;10.10;99.90;;;;;;5033571;28;20044;-73
2023/03/24 04:43:20;;;;;;;12.75;1.98;;;10.10;99.90;;;;;;5032333;28;20049;-73
2023/03/24 04:45:48;;;;;;;11.02;1.75;;;10.00;99.90;;;;;;5031392;28;20091;-73
2023/03/24 04:48:16;;;;;;;11.68;2.05;;;10.00;99.90;;;;;;5030522;28;20171;-73
2023/03/24 04:50:50;;;;;;;14.38;2.30;;;9.90;99.90;;;;;;5031997;28;20298;-72
2023/03/24 04:53:15;;;;;;;11.48;2.15;;;9.90;99.90;;;;;;5014200;28;20083;-72
2023/03/24 04:56:29;;;;;;;11.25;2.00;;;9.90;99.90;;;;;;5030881;28;20124;-72
2023/03/24 04:58:55;;;;;;;12.70;2.38;;;9.80;99.90;;;;;;5013122;28;20150;-72
2023/03/24 05:01:21;;;;;;;14.32;2.10;;;10.00;99.90;;;;;;5015115;28;21179;-74
2023/03/24 05:03:48;;;;;;;14.27;2.92;;;9.70;99.90;;;;;;5029787;28;20045;-73
2023/03/24 05:06:15;;;;;;;11.50;2.05;;;9.80;99.90;;;;;;5028958;28;20273;-73
2023/03/24 05:08:41;;;;;;;15.48;2.75;;;9.70;99.90;;;;;;5013829;28;20049;-72
2023/03/24 05:11:07;;;;;;;12.77;2.33;;;9.70;99.90;;;;;;5030336;28;20128;-72
2023/03/24 05:13:33;;;;;;;16.65;2.45;;;9.70;99.90;;;;;;5009968;28;20055;-73
2023/03/24 05:15:59;;;;;;;17.98;2.70;;;9.70;99.90;;;;;;5013015;28;20041;-73
2023/03/24 05:18:24;;;;;;;15.38;3.03;;;9.70;99.90;;;;;;5013081;28;20041;-73
2023/03/24 05:20:50;;;;;;;13.48;2.60;;;9.60;99.90;;;;;;5029688;28;20128;-73
2023/03/24 05:23:16;;;;;;;15.02;3.10;;;9.60;99.90;;;;;;5031915;28;20041;-73
2023/03/24 05:25:42;;;;;;;15.48;3.25;;;9.60;99.90;;;;;;5021434;28;22836;-73
2023/03/24 05:28:07;;;;;;;14.13;2.60;;;9.60;99.90;;;;;;5024552;28;20068;-73
2023/03/24 05:30:33;;;;;;;12.43;2.92;;;9.70;99.90;;;;;;5030769;28;20048;-73
2023/03/24 05:32:59;;;;;;;16.50;3.10;;;9.60;99.90;;;;;;5021644;28;20581;-73
2023/03/24 05:35:25;;;;;;;17.42;3.30;;;9.60;99.90;;;;;;5020085;28;20042;-73
2023/03/24 05:37:51;;;;;;;16.60;3.55;;;9.60;99.90;;;;;;5024176;28;20045;-71
2023/03/24 05:40:17;;;;;;;17.45;3.30;;;9.60;99.90;;;;;;5027101;28;20087;-72
2023/03/24 05:42:43;;;;;;;15.30;2.90;;;9.60;99.90;;;;;;5026141;28;20136;-72
2023/03/24 05:45:10;;;;;;;18.08;3.13;;;9.60;99.90;;;;;;5026457;28;20044;-72
2023/03/24 05:47:36;;;;;;;23.70;2.88;;;9.60;99.90;;;;;;5028557;28;20049;-72
2023/03/24 05:50:02;;;;;;;19.60;3.30;;;9.60;99.90;;;;;;5035947;28;20549;-73
2023/03/24 05:52:28;;;;;;;17.60;2.90;;;9.60;99.90;;;;;;5024726;28;20132;-72
2023/03/24 05:54:54;;;;;;;13.85;3.28;;;9.60;99.90;;;;;;5034479;28;20055;-72
2023/03/24 05:57:20;;;;;;;16.05;3.35;;;9.60;99.90;;;;;;5047312;28;20049;-73
2023/03/24 05:59:46;;;;;;;13.73;2.50;;;9.60;99.90;;;;;;5037488;28;20037;-72
2023/03/24 06:02:12;;;;;;;19.55;2.95;;;9.60;99.90;;;;;;5034528;28;20574;-73
2023/03/24 06:04:37;;;;;;;13.90;2.80;;;9.60;99.90;;;;;;5006182;28;20069;-73
2023/03/24 06:07:03;;;;;;;17.02;3.53;;;9.60;99.90;;;;;;5027677;28;20094;-72
2023/03/24 06:09:41;;;;;;;17.00;2.42;;;9.50;99.90;;;;;;5022594;28;20049;-72
2023/03/24 06:12:08;;;;;;;20.70;3.33;;;9.60;99.90;;;;;;5021673;28;20053;-72
2023/03/24 06:14:34;;;;;;;20.63;3.35;;;9.50;99.90;;;;;;5035120;28;20091;-73
2023/03/24 06:17:00;;;;;;;16.42;2.90;;;9.50;99.90;;;;;;5025434;28;20037;-73
2023/03/24 06:19:29;;;;;;;16.67;2.58;;;9.50;99.90;;;;;;5028667;28;20065;-73
2023/03/24 06:21:59;;;;;;;10.65;2.13;;;9.50;99.90;;;;;;5010359;28;20126;-72
2023/03/24 06:24:26;;;;;;;17.70;3.03;;;9.50;99.90;;;;;;5034021;28;20040;-73
2023/03/24 06:26:51;;;;;;;13.98;2.30;;;9.50;99.90;;;;;;5036868;28;20525;-73
2023/03/24 06:29:17;;;;;;;16.25;2.78;;;9.50;99.90;;;;;;5046314;28;20047;-72
2023/03/24 06:31:45;;;;;;;17.27;2.50;;;9.50;99.90;;;;;;5040673;28;20864;-73
2023/03/24 06:34:11;;;;;;;15.43;2.70;;;9.50;99.90;;;;;;5027715;28;21882;-74
2023/03/24 06:36:37;;;;;;;18.75;2.90;;;9.50;99.90;;;;;;5039311;28;20029;-73
2023/03/24 06:39:04;;;;;;;16.42;2.42;;;9.50;99.90;;;;;;5037292;28;20060;-72
2023/03/24 06:41:31;;;;;;;17.08;2.50;;;9.50;99.90;;;;;;5041109;28;20045;-73
2023/03/24 06:43:57;;;;;;;16.02;2.45;;;9.50;99.90;;;;;;5035599;28;20045;-72
2023/03/24 06:46:24;;;;;;;14.32;2.88;;;9.50;99.90;;;;;;5037183;28;20037;-73
2023/03/24 06:48:50;;;;;;;16.67;2.67;;;9.50;99.90;;;;;;5041380;28;20729;-73
2023/03/24 06:51:16;;;;;;;18.75;2.60;;;9.50;99.90;;;;;;5037931;28;20071;-72
2023/03/24 06:53:44;;;;;;;13.88;2.35;;;9.50;99.90;;;;;;5030022;28;20056;-73
2023/03/24 06:56:15;;;;;;;14.13;2.78;;;9.50;99.90;;;;;;5039211;28;21474;-73
2023/03/24 06:58:42;;;;;;;18.25;3.15;;;9.50;99.90;;;;;;5028259;28;20041;-73
2023/03/24 07:01:07;;;;;;;19.02;3.10;;;9.60;99.90;;;;;;5022205;28;20044;-72
2023/03/24 07:03:33;;;;;;;21.70;3.35;;;9.60;99.90;;;;;;5041967;28;20052;-73
2023/03/24 07:05:59;;;;;;;23.15;3.60;;;9.60;99.90;;;;;;5026887;28;20171;-73
2023/03/24 07:08:26;;;;;;;16.45;2.63;;;9.60;99.90;;;;;;5043637;28;20047;-71
2023/03/24 07:10:52;;;;;;;17.33;3.20;;;9.60;99.90;;;;;;5025894;28;20603;-73
2023/03/24 07:13:18;;;;;;;21.60;3.40;;;9.60;99.90;;;;;;5022910;28;20033;-73
2023/03/24 07:15:44;;;;;;;19.88;3.17;;;9.60;99.90;;;;;;5042491;28;20306;-72
2023/03/24 07:18:10;;;;;;;21.63;3.25;;;9.60;99.90;;;;;;5041897;28;20045;-73
2023/03/24 07:20:36;;;;;;;20.83;2.75;;;9.60;99.90;;;;;;5026423;28;20045;-73
2023/03/24 07:23:02;;;;;;;23.48;3.10;;;9.70;99.90;;;;;;5054961;28;20052;-73
2023/03/24 07:25:28;;;;;;;17.40;3.03;;;9.70;99.90;;;;;;5043254;28;20037;-73
2023/03/24 07:27:55;;;;;;;20.25;2.67;;;9.70;99.90;;;;;;5050148;28;20106;-73
2023/03/24 07:30:22;;;;;;;17.95;2.92;;;9.70;99.90;;;;;;5037088;28;20041;-72
2023/03/24 07:32:48;;;;;;;17.92;3.63;;;9.80;99.90;;;;;;5038848;28;20120;-73
2023/03/24 07:35:15;;;;;;;27.65;4.35;;;9.80;99.90;;;;;;5041224;28;20159;-73
2023/03/24 07:37:41;;;;;;;21.52;4.40;;;9.80;99.90;;;;;;5023449;28;20071;-72
2023/03/24 07:40:10;;;;;;;17.85;3.35;;;9.80;99.90;;;;;;5020033;28;20041;-72
2023/03/24 07:42:38;;;;;;;26.63;3.72;;;9.80;99.90;;;;;;5030495;28;20572;-73
2023/03/24 07:45:09;;;;;;;19.60;3.03;;;9.80;99.90;;;;;;5030269;28;20071;-73
2023/03/24 07:47:36;;;;;;;17.65;3.00;;;9.80;99.90;;;;;;5033000;28;20046;-73
2023/03/24 07:50:04;;;;;;;31.30;4.32;;;9.80;99.90;;;;;;5020920;28;20045;-73
2023/03/24 07:52:30;;;;;;;25.73;3.58;;;9.80;99.90;;;;;;5017089;28;20075;-72
2023/03/24 07:54:56;;;;;;;20.83;3.58;;;9.80;99.90;;;;;;5028276;28;20132;-72
2023/03/24 07:57:22;;;;;;;25.80;3.65;;;9.80;99.90;;;;;;5027209;28;20033;-73
2023/03/24 07:59:48;;;;;;;17.88;3.05;;;9.90;99.90;;;;;;5025650;28;20041;-73
2023/03/24 08:02:18;;;;;;;21.15;3.63;;;9.90;99.90;;;;;;5028932;28;20049;-73
2023/03/24 08:04:44;;;;;;;21.88;3.40;;;9.90;99.90;;;;;;5031112;28;20086;-73
2023/03/24 08:07:12;;;;;;;30.38;4.15;;;9.90;99.90;;;;;;5030948;28;20136;-73
2023/03/24 08:09:39;;;;;;;26.73;3.85;;;9.90;99.90;;;;;;5029909;28;20044;-73
2023/03/24 08:12:05;;;;;;;23.05;3.38;;;9.90;99.90;;;;;;5027130;28;20045;-73
2023/03/24 08:14:31;;;;;;;29.02;3.22;;;9.90;99.90;;;;;;5029166;28;20925;-73
2023/03/24 08:16:57;;;;;;;25.80;3.50;;;10.00;99.90;;;;;;5033932;28;20563;-72
2023/03/24 08:19:23;;;;;;;24.95;4.28;;;10.00;99.90;;;;;;5038373;28;20669;-73
2023/03/24 08:21:48;;;;;;;27.67;3.95;;;10.00;99.90;;;;;;5041574;28;20407;-73
2023/03/24 08:24:14;;;;;;;23.95;3.72;;;10.00;99.90;;;;;;5032334;28;20052;-72
2023/03/24 08:26:41;;;;;;;26.83;4.20;;;10.10;99.90;;;;;;5037570;28;20098;-73
2023/03/24 08:29:07;;;;;;;25.58;3.97;;;10.00;99.90;;;;;;5038163;28;20124;-73
2023/03/24 08:31:35;;;;;;;25.90;3.72;;;10.10;99.90;;;;;;5037156;28;20049;-73
2023/03/24 08:34:01;;;;;;;27.15;5.13;;;10.10;99.90;;;;;;5039994;28;20045;-73
2023/03/24 08:36:26;;;;;;;21.77;3.47;;;10.20;99.90;;;;;;5033215;28;20583;-73
2023/03/24 08:38:54;;;;;;;28.90;3.97;;;10.20;99.90;;;;;;5043809;28;20114;-73
2023/03/24 08:41:21;;;;;;;26.15;3.75;;;10.30;99.90;;;;;;5040500;28;20101;-73
2023/03/24 08:43:47;;;;;;;25.35;4.55;;;10.40;99.90;;;;;;5033237;28;20412;-73
2023/03/24 08:46:14;;;;;;;22.42;3.55;;;10.40;99.90;;;;;;5051270;28;20044;-72
2023/03/24 08:48:40;;;;;;;15.80;3.13;;;10.50;99.90;;;;;;5051771;28;20053;-72
2023/03/24 08:51:11;;;;;;;23.98;3.95;;;10.80;99.90;;;;;;5048432;28;20090;-73
2023/03/24 08:53:37;;;;;;;26.50;3.92;;;10.50;99.90;;;;;;5030603;28;20044;-72
2023/03/24 08:56:02;;;;;;;20.00;3.70;;;10.60;99.90;;;;;;5053124;28;20048;-72
2023/03/24 08:58:28;;;;;;;22.98;4.13;;;10.70;99.90;;;;;;5052237;28;20139;-73
2023/03/24 09:00:54;;;;;;;23.25;4.28;;;10.70;99.90;;;;;;5045576;28;20055;-72
2023/03/24 09:03:21;;;;;;;21.80;3.90;;;10.80;99.90;;;;;;5058322;28;20105;-72
2023/03/24 09:05:47;;;;;;;27.60;4.30;;;10.80;99.90;;;;;;5058069;28;20105;-73
2023/03/24 09:08:15;;;;;;;21.17;3.15;;;10.80;99.90;;;;;;5041935;28;20049;-74
2023/03/24 09:10:42;;;;;;;21.17;3.50;;;10.90;99.90;;;;;;5047057;28;20033;-71
2023/03/24 09:13:08;;;;;;;22.58;3.33;;;10.90;99.90;;;;;;5040919;28;20055;-72
2023/03/24 09:15:34;;;;;;;17.75;3.75;;;10.90;99.90;;;;;;5031343;28;20052;-74
2023/03/24 09:18:01;;;;;;;19.48;3.38;;;10.90;99.90;;;;;;5046104;28;20061;-72
2023/03/24 09:20:27;;;;;;;20.55;3.53;;;10.90;99.90;;;;;;5029281;28;20516;-72
2023/03/24 09:22:54;;;;;;;17.92;3.58;;;10.90;99.90;;;;;;5051714;28;20080;-74
2023/03/24 09:25:21;;;;;;;26.85;4.13;;;10.90;99.90;;;;;;5043246;28;20043;-72
2023/03/24 09:27:47;;;;;;;24.10;3.78;;;10.80;99.90;;;;;;5050814;28;20051;-73
2023/03/24 09:30:16;;;;;;;21.55;3.20;;;10.90;99.90;;;;;;5052913;28;20534;-72
2023/03/24 09:32:43;;;;;;;30.50;4.15;;;10.80;99.90;;;;;;5045471;28;20044;-73
2023/03/24 09:35:09;;;;;;;25.38;3.72;;;10.80;99.90;;;;;;5048993;28;20063;-73
2023/03/24 09:37:36;;;;;;;22.00;3.33;;;10.90;99.90;;;;;;5030381;28;20200;-73
2023/03/24 09:40:02;;;;;;;25.42;4.00;;;10.90;99.90;;;;;;5033840;28;20095;-73
2023/03/24 09:42:33;;;;;;;19.85;3.08;;;10.90;99.90;;;;;;5041506;28;20052;-72
2023/03/24 09:45:10;;;;;;;24.20;3.65;;;11.10;99.90;;;;;;5040384;28;20159;-73
2023/03/24 09:47:44;;;;;;;20.95;3.47;;;11.20;99.90;;;;;;5044058;28;20041;-73
2023/03/24 09:50:27;;;;;;;26.60;3.55;;;11.20;99.90;;;;;;5042371;28;20430;-73
2023/03/24 09:52:58;;;;;;;24.90;3.38;;;11.20;99.90;;;;;;5043238;28;20417;-71
2023/03/24 09:55:28;;;;;;;17.60;3.17;;;11.20;99.90;;;;;;5044326;28;20045;-74
2023/03/24 09:58:03;;;;;;;19.70;3.33;;;11.20;99.90;;;;;;5040053;28;20052;-73
2023/03/24 10:00:33;;;;;;;17.20;2.85;;;11.30;99.90;;;;;;5022955;28;20076;-74
2023/03/24 10:03:21;;;;;;;20.25;3.80;;;11.40;99.90;;;;;;5040940;28;20501;-73
2023/03/24 10:05:57;;;;;;;19.05;2.85;;;11.50;99.90;;;;;;5040399;28;20456;-73
2023/03/24 10:08:30;;;;;;;13.98;2.92;;;11.60;99.90;;;;;;5041355;28;20044;-73
2023/03/24 10:11:33;;;;;;;16.40;2.58;;;11.60;99.90;;;;;;5038181;28;20052;-74
2023/03/24 10:14:31;;;;;;;26.00;3.60;;;11.70;99.90;;;;;;5040781;28;20436;-73
2023/03/24 10:17:18;;;;;;;17.98;3.28;;;11.70;99.90;;;;;;5043412;28;20047;-73
2023/03/24 10:20:02;;;;;;;21.13;3.15;;;11.80;99.90;;;;;;5038905;28;20548;-73
2023/03/24 10:23:00;;;;;;;17.30;3.38;;;11.80;99.90;;;;;;5038117;28;20072;-72
2023/03/24 10:25:38;;;;;;;18.05;2.70;;;11.90;99.90;;;;;;5042228;28;20036;-72
2023/03/24 10:28:33;;;;;;;21.33;3.35;;;12.00;99.90;;;;;;5043451;28;20695;-72
2023/03/24 10:31:03;;;;;;;17.48;2.95;;;12.10;99.90;;;;;;5039287;28;20722;-71
2023/03/24 10:33:30;;;;;;;17.60;3.28;;;12.10;99.90;;;;;;5038482;28;20105;-74
2023/03/24 10:36:07;;;;;;;21.58;3.20;;;12.20;99.90;;;;;;5036656;28;20045;-73
2023/03/24 10:38:32;;;;;;;19.15;3.25;;;12.20;99.90;;;;;;5037100;28;20485;-71
2023/03/24 10:40:59;;;;;;;12.75;2.10;;;12.30;99.90;;;;;;5049657;28;20059;-72
2023/03/24 10:43:26;;;;;;;17.95;3.03;;;12.40;99.90;;;;;;5048877;28;20042;-72
2023/03/24 10:45:55;;;;;;;21.23;3.13;;;12.50;99.90;;;;;;5073778;28;20040;-73
2023/03/24 10:48:43;;;;;;;17.75;2.75;;;12.50;99.90;;;;;;5064963;28;20107;-72
2023/03/24 10:51:26;;;;;;;14.73;2.63;;;12.60;99.90;;;;;;5035945;28;20118;-73
2023/03/24 10:54:10;;;;;;;15.80;3.15;;;12.60;99.90;;;;;;5030691;28;20040;-72
2023/03/24 10:56:44;;;;;;;20.88;3.67;;;12.50;99.90;;;;;;5052003;28;20083;-73
2023/03/24 10:59:26;;;;;;;17.00;3.10;;;12.50;99.90;;;;;;5042615;28;20041;-72
2023/03/24 11:01:59;;;;;;;;;;;12.40;99.90;;;;;;5031525;28;20086;-74
2023/03/24 11:04:26;;;;;;;22.02;3.35;;;12.30;99.90;;;;;;5026465;28;19924;-72
2023/03/24 11:07:00;;;;;;;19.80;3.38;;;12.30;99.90;;;;;;5058129;28;20716;-72
2023/03/24 11:09:26;;;;;;;19.63;3.30;;;12.30;99.90;;;;;;5055537;28;20052;-72
2023/03/24 11:11:52;;;;;;;23.42;3.65;;;12.30;99.90;;;;;;5047146;28;20044;-73
2023/03/24 11:14:25;;;;;;;18.60;3.50;;;12.40;99.90;;;;;;5065571;28;20101;-73
2023/03/24 11:16:53;;;;;;;16.92;3.05;;;12.50;99.90;;;;;;5060610;28;20101;-72
2023/03/24 11:19:26;;;;;;;16.05;2.45;;;12.50;99.90;;;;;;5063196;28;20040;-72
2023/03/24 11:22:01;;;;;;;22.10;3.22;;;12.60;99.90;;;;;;5057147;28;20044;-71
2023/03/24 11:24:28;;;;;;;15.90;2.67;;;12.70;99.90;;;;;;5060955;28;20421;-71
2023/03/24 11:27:00;;;;;;;13.70;2.83;;;12.80;99.90;;;;;;5044795;28;20447;-73
2023/03/24 11:29:29;;;;;;;16.30;2.90;;;12.80;99.90;;;;;;5043897;28;20052;-71
2023/03/24 11:32:10;;;;;;;17.15;3.58;;;12.90;99.90;;;;;;5051395;28;20431;-72
2023/03/24 11:34:40;;;;;;;16.42;2.72;;;12.80;99.90;;;;;;5048438;28;20059;-72
2023/03/24 11:37:21;;;;;;;23.85;3.08;;;12.80;99.90;;;;;;5033013;28;20040;-72
2023/03/24 11:40:09;;;;;;;15.60;3.55;;;12.80;99.90;;;;;;5050184;28;20048;-72
2023/03/24 11:42:47;;;;;;;13.40;2.40;;;12.70;99.90;;;;;;5053387;28;20052;-72
2023/03/24 11:45:33;;;;;;;16.77;2.92;;;12.60;99.90;;;;;;5048478;28;20044;-72
2023/03/24 11:48:00;;;;;;;17.25;2.83;;;12.70;99.90;;;;;;5051514;28;20036;-73
2023/03/24 11:50:29;;;;;;;16.15;2.53;;;12.60;99.90;;;;;;5048271;28;20444;-72
2023/03/24 11:53:17;;;;;;;14.63;2.83;;;12.60;99.90;;;;;;5064059;28;20044;-70
2023/03/24 11:55:53;;;;;;;10.60;2.63;;;12.60;99.90;;;;;;5056449;28;20040;-72
2023/03/24 11:58:26;;;;;;;15.65;2.80;;;12.60;99.90;;;;;;5042586;28;20409;-72
2023/03/24 12:01:09;;;;;;;19.42;2.45;;;12.60;99.90;;;;;;5064753;28;20071;-73
2023/03/24 12:03:49;;;;;;;14.68;3.13;;;12.60;99.90;;;;;;5060610;28;20048;-73
2023/03/24 12:06:37;;;;;;;14.05;2.40;;;12.60;99.90;;;;;;5057301;28;20059;-72
2023/03/24 12:09:17;;;;;;;15.32;2.63;;;12.70;99.90;;;;;;5042218;28;20067;-72
2023/03/24 12:12:20;;;;;;;16.05;2.55;;;12.80;99.90;;;;;;5063779;28;20508;-73
2023/03/24 12:14:52;;;;;;;16.15;2.67;;;12.90;99.90;;;;;;5052204;28;20048;-73
2023/03/24 12:17:23;;;;;;;15.15;2.35;;;13.00;99.90;;;;;;5040942;28;20102;-72
2023/03/24 12:19:55;;;;;;;14.80;2.95;;;13.00;99.90;;;;;;5053035;28;20074;-71
2023/03/24 12:22:41;;;;;;;17.90;3.22;;;13.00;99.90;;;;;;5055095;28;20052;-72
2023/03/24 12:25:09;;;;;;;14.98;2.20;;;12.90;99.90;;;;;;5035845;28;20056;-71
2023/03/24 12:28:09;;;;;;;15.55;2.33;;;12.70;99.90;;;;;;5061431;28;20068;-71
2023/03/24 12:30:53;;;;;;;16.98;2.72;;;12.60;99.90;;;;;;5052521;28;20040;-71
2023/03/24 12:33:56;;;;;;;14.95;2.70;;;12.60;99.90;;;;;;5040673;28;20090;-72
2023/03/24 12:37:20;;;;;;;21.50;2.90;;;12.50;99.90;;;;;;5035368;28;20039;-72
2023/03/24 12:39:56;;;;;;;19.15;3.38;;;12.50;99.90;;;;;;5026252;28;20734;-72
2023/03/24 12:42:24;;;;;;;15.88;2.58;;;12.40;99.90;;;;;;5067545;28;20597;-71
2023/03/24 12:45:22;;;;;;;14.80;2.70;;;12.40;99.90;;;;;;5056505;28;20048;-72
2023/03/24 12:48:19;;;;;;;15.93;3.40;;;12.40;99.90;;;;;;5062686;28;20153;-72
2023/03/24 12:50:48;;;;;;;18.17;2.90;;;12.40;99.90;;;;;;5040514;28;20044;-72
2023/03/24 12:53:46;;;;;;;13.02;2.47;;;12.30;99.90;;;;;;5039769;28;20048;-72
2023/03/24 12:56:29;;;;;;;24.88;3.15;;;12.30;99.90;;;;;;5058618;28;20044;-71
2023/03/24 12:59:02;;;;;;;19.08;2.80;;;12.40;99.90;;;;;;5049216;28;20048;-72
2023/03/24 13:01:42;;;;;;;13.57;2.13;;;12.50;99.90;;;;;;5036267;28;20058;-72
2023/03/24 13:04:12;;;;;;;17.90;3.35;;;12.60;99.90;;;;;;5065463;28;20518;-72
2023/03/24 13:06:57;;;;;;;19.55;2.75;;;12.60;99.90;;;;;;5056069;28;20518;-72
2023/03/24 13:09:54;;;;;;;22.58;3.05;;;12.60;99.90;;;;;;5059223;28;20182;-72